Time;durP1;ratioP1;P1;durP2;ratioP2;P2;SDS_P1;SDS_P2;PMS_P1;PMS_P2;Temp;Humidity;BMP_temperature;BMP_pressure;BME280_temperature;BME280_humidity;BME280_pressure;Samples;Min_cycle;Max_cycle;Signal;HPM_P1;HPM_P2
2023/12/29 00:00:51;;;;;;;11.03;6.00;;;5.20;99.90;;;;;;5035835;28;20238;-75
2023/12/29 00:03:39;;;;;;;12.50;5.97;;;5.20;99.90;;;;;;5035008;28;20196;-76
2023/12/29 00:06:26;;;;;;;9.80;5.90;;;5.10;99.90;;;;;;5034231;28;20329;-75
2023/12/29 00:09:19;;;;;;;12.87;5.97;;;5.20;99.90;;;;;;5035944;28;20199;-76
2023/12/29 00:12:07;;;;;;;13.73;6.20;;;5.20;99.90;;;;;;5034917;28;20293;-76
2023/12/29 00:14:55;;;;;;;12.90;6.17;;;5.20;99.90;;;;;;5035803;28;20206;-77
2023/12/29 00:17:43;;;;;;;13.20;6.10;;;5.20;99.90;;;;;;5034826;28;20203;-76
2023/12/29 00:20:31;;;;;;;15.43;7.33;;;5.20;99.90;;;;;;5034289;28;20203;-75
2023/12/29 00:23:27;;;;;;;11.60;6.53;;;5.10;99.90;;;;;;5034795;28;20192;-75
2023/12/29 00:26:18;;;;;;;14.50;6.70;;;5.10;99.90;;;;;;5034873;28;20307;-75
2023/12/29 00:29:06;;;;;;;13.80;6.80;;;5.00;99.90;;;;;;5035031;28;20234;-75
2023/12/29 00:31:53;;;;;;;14.77;7.30;;;5.00;99.90;;;;;;5035321;28;20200;-76
2023/12/29 00:34:41;;;;;;;13.73;6.90;;;4.90;99.90;;;;;;5034874;28;20192;-75
2023/12/29 00:37:28;;;;;;;14.87;6.83;;;4.90;99.90;;;;;;5034661;28;20206;-76
2023/12/29 00:40:16;;;;;;;17.20;7.43;;;4.90;99.90;;;;;;5034812;28;20272;-76
2023/12/29 00:43:03;;;;;;;14.50;7.40;;;4.90;99.90;;;;;;5034183;28;20726;-76
2023/12/29 00:45:51;;;;;;;15.40;7.13;;;4.90;99.90;;;;;;5034206;28;20250;-76
2023/12/29 00:48:38;;;;;;;14.43;7.90;;;4.90;99.90;;;;;;5034225;28;20277;-76
2023/12/29 00:51:26;;;;;;;14.90;7.40;;;4.90;99.90;;;;;;5033498;28;20195;-76
2023/12/29 00:54:14;;;;;;;15.13;8.60;;;4.80;99.90;;;;;;5034521;28;20278;-76
2023/12/29 00:57:01;;;;;;;15.10;8.03;;;4.70;99.90;;;;;;5037303;28;20579;-75
2023/12/29 00:59:49;;;;;;;15.67;8.43;;;4.70;99.90;;;;;;5035210;28;20196;-74
2023/12/29 01:02:36;;;;;;;15.10;8.33;;;4.60;99.90;;;;;;5034602;28;20192;-76
2023/12/29 01:05:23;;;;;;;15.20;8.57;;;4.60;99.90;;;;;;5033620;28;20262;-75
2023/12/29 01:08:11;;;;;;;15.50;8.77;;;4.50;99.90;;;;;;5034325;28;20272;-76
2023/12/29 01:10:58;;;;;;;17.83;9.00;;;4.50;99.90;;;;;;5034757;28;20270;-76
2023/12/29 01:13:45;;;;;;;19.03;9.47;;;4.50;99.90;;;;;;5034659;28;20274;-75
2023/12/29 01:16:33;;;;;;;20.80;8.77;;;4.40;99.90;;;;;;5033575;28;20341;-75
2023/12/29 01:19:20;;;;;;;17.70;8.83;;;4.50;99.90;;;;;;5033323;28;20199;-75
2023/12/29 01:22:08;;;;;;;16.43;9.17;;;4.40;99.90;;;;;;5034085;28;20198;-75
2023/12/29 01:24:59;;;;;;;18.37;9.23;;;4.40;99.90;;;;;;5032937;28;20199;-76
2023/12/29 01:27:46;;;;;;;19.37;9.77;;;4.40;99.90;;;;;;5034903;28;20216;-76
2023/12/29 01:30:34;;;;;;;17.57;9.47;;;4.30;99.90;;;;;;5033150;28;20196;-76
2023/12/29 01:33:22;;;;;;;20.63;9.60;;;4.30;99.90;;;;;;5033366;28;20203;-75
2023/12/29 01:36:16;;;;;;;19.83;9.97;;;4.30;99.90;;;;;;5034323;28;20196;-75
2023/12/29 01:39:10;;;;;;;17.70;9.27;;;4.30;99.90;;;;;;5033326;28;20200;-76
2023/12/29 01:41:57;;;;;;;19.03;9.50;;;4.30;99.90;;;;;;5031930;28;20219;-76
2023/12/29 01:44:44;;;;;;;19.90;9.83;;;4.20;99.90;;;;;;5034146;28;20602;-75
2023/12/29 01:47:32;;;;;;;18.93;8.93;;;4.20;99.90;;;;;;5033123;28;20281;-75
2023/12/29 01:50:21;;;;;;;18.80;9.13;;;4.20;99.90;;;;;;5034094;28;20200;-75
2023/12/29 01:53:09;;;;;;;17.63;9.03;;;4.10;99.90;;;;;;5033428;28;20295;-76
2023/12/29 01:55:56;;;;;;;18.67;10.20;;;4.10;99.90;;;;;;5033279;28;20214;-75
2023/12/29 01:58:48;;;;;;;18.30;9.53;;;4.00;99.90;;;;;;5031844;28;20330;-76
2023/12/29 02:01:39;;;;;;;18.77;10.30;;;4.10;99.90;;;;;;5033795;28;20195;-75
2023/12/29 02:04:28;;;;;;;17.00;9.03;;;4.00;99.90;;;;;;5032937;28;20608;-75
2023/12/29 02:07:15;;;;;;;18.17;9.23;;;4.00;99.90;;;;;;5032201;28;20215;-76
2023/12/29 02:10:04;;;;;;;20.97;9.73;;;4.00;99.90;;;;;;5032527;28;20703;-75
2023/12/29 02:12:57;;;;;;;19.97;9.70;;;3.90;99.90;;;;;;5032358;28;20316;-75
2023/12/29 02:15:46;;;;;;;23.47;10.30;;;3.90;99.90;;;;;;5032758;28;20205;-76
2023/12/29 02:18:36;;;;;;;21.20;9.83;;;4.00;99.90;;;;;;5031250;28;20195;-75
2023/12/29 02:21:25;;;;;;;18.80;9.90;;;3.90;99.90;;;;;;5033102;28;20210;-76
2023/12/29 02:24:12;;;;;;;20.03;10.47;;;3.90;99.90;;;;;;5044987;28;20195;-76
2023/12/29 02:27:19;;;;;;;21.47;10.40;;;4.00;99.90;;;;;;5031713;28;20227;-75
2023/12/29 02:30:43;;;;;;;19.60;9.60;;;3.80;99.90;;;;;;5032657;28;20206;-75
2023/12/29 02:33:33;;;;;;;19.20;10.20;;;3.80;99.90;;;;;;5032860;28;20213;-75
2023/12/29 02:36:23;;;;;;;24.57;10.80;;;3.80;99.90;;;;;;5032017;28;20214;-75
2023/12/29 02:39:11;;;;;;;20.23;10.87;;;3.80;99.90;;;;;;5032677;28;20248;-75
2023/12/29 02:41:58;;;;;;;20.30;11.43;;;3.70;99.90;;;;;;5032541;28;20226;-75
2023/12/29 02:44:45;;;;;;;20.07;10.77;;;3.70;99.90;;;;;;5033787;28;20207;-75
2023/12/29 02:47:33;;;;;;;21.30;10.70;;;3.60;99.90;;;;;;5031347;28;20269;-76
2023/12/29 02:50:21;;;;;;;21.67;11.90;;;3.60;99.90;;;;;;5032999;28;20752;-75
2023/12/29 02:53:09;;;;;;;21.40;11.10;;;3.60;99.90;;;;;;5032434;28;20656;-75
2023/12/29 02:55:56;;;;;;;21.63;11.77;;;3.50;99.90;;;;;;5031627;28;20686;-75
2023/12/29 02:58:45;;;;;;;24.17;12.40;;;3.50;99.90;;;;;;5031734;28;20655;-76
2023/12/29 03:01:33;;;;;;;26.40;12.20;;;3.50;99.90;;;;;;5031622;28;20205;-75
2023/12/29 03:04:21;;;;;;;27.10;12.03;;;3.40;99.90;;;;;;5031923;28;20198;-75
2023/12/29 03:07:09;;;;;;;21.90;11.93;;;3.50;99.90;;;;;;4991825;28;20230;-75
2023/12/29 03:09:58;;;;;;;24.70;13.10;;;3.40;99.90;;;;;;4991986;28;20575;-76
2023/12/29 03:12:45;;;;;;;20.93;11.80;;;3.40;99.90;;;;;;4992695;28;20217;-75
2023/12/29 03:15:33;;;;;;;23.17;11.70;;;3.40;99.90;;;;;;4992818;28;20602;-75
2023/12/29 03:18:20;;;;;;;25.33;12.00;;;3.40;99.90;;;;;;4993935;28;20646;-75
2023/12/29 03:21:08;;;;;;;26.03;12.23;;;3.30;99.90;;;;;;4993827;28;20287;-73
2023/12/29 03:23:55;;;;;;;25.63;12.90;;;3.40;99.90;;;;;;4993076;28;20544;-73
2023/12/29 03:26:43;;;;;;;24.67;12.27;;;3.30;99.90;;;;;;4991759;28;20285;-73
2023/12/29 03:29:30;;;;;;;22.80;12.03;;;3.30;99.90;;;;;;4991771;28;20564;-74
2023/12/29 03:32:17;;;;;;;24.17;12.07;;;3.40;99.90;;;;;;4991255;28;20215;-72
2023/12/29 03:35:05;;;;;;;23.43;11.93;;;3.30;99.90;;;;;;4992395;28;20578;-74
2023/12/29 03:37:53;;;;;;;23.87;12.37;;;3.30;99.90;;;;;;4992080;28;20203;-75
2023/12/29 03:40:41;;;;;;;23.37;12.27;;;3.30;99.90;;;;;;4991550;28;20275;-75
2023/12/29 03:43:28;;;;;;;27.37;13.13;;;3.30;99.90;;;;;;4991140;28;20211;-75
2023/12/29 03:46:20;;;;;;;23.80;12.93;;;3.30;99.90;;;;;;4992426;28;20292;-76
2023/12/29 03:49:08;;;;;;;25.37;12.33;;;3.30;99.90;;;;;;4992799;28;20201;-75
2023/12/29 03:51:55;;;;;;;21.93;11.77;;;3.30;99.90;;;;;;4992537;28;20201;-75
2023/12/29 03:54:43;;;;;;;23.37;12.23;;;3.30;99.90;;;;;;4992436;28;20214;-75
2023/12/29 03:57:31;;;;;;;26.97;12.50;;;3.30;99.90;;;;;;4992196;28;20572;-75
2023/12/29 04:00:18;;;;;;;23.63;12.17;;;3.30;99.90;;;;;;4992487;28;20192;-75
2023/12/29 04:03:05;;;;;;;23.03;12.00;;;3.30;99.90;;;;;;4991508;28;20295;-76
2023/12/29 04:05:53;;;;;;;25.97;12.87;;;3.30;99.90;;;;;;5012673;28;20234;-76
2023/12/29 04:08:40;;;;;;;22.27;12.33;;;3.30;99.90;;;;;;5030474;28;20199;-76
2023/12/29 04:11:27;;;;;;;25.43;12.40;;;3.30;99.90;;;;;;5031569;28;20213;-76
2023/12/29 04:14:16;;;;;;;25.63;12.17;;;3.30;99.90;;;;;;5031252;28;20250;-76
2023/12/29 04:17:05;;;;;;;25.93;13.00;;;3.30;99.90;;;;;;5031602;28;20283;-75
2023/12/29 04:19:53;;;;;;;22.27;12.37;;;3.30;99.90;;;;;;5030521;28;20288;-76
2023/12/29 04:22:40;;;;;;;22.77;12.60;;;3.30;99.90;;;;;;5032683;28;20290;-75
2023/12/29 04:25:28;;;;;;;25.43;13.00;;;3.30;99.90;;;;;;5034537;28;20714;-75
2023/12/29 04:28:16;;;;;;;25.00;12.50;;;3.30;99.90;;;;;;5035156;28;20193;-75
2023/12/29 04:31:04;;;;;;;23.73;12.70;;;3.30;99.90;;;;;;5033852;28;20659;-75
2023/12/29 04:33:51;;;;;;;24.47;12.90;;;3.40;99.90;;;;;;5033971;28;20301;-75
2023/12/29 04:36:39;;;;;;;23.63;12.53;;;3.30;99.90;;;;;;5033667;28;20248;-75
2023/12/29 04:39:27;;;;;;;24.87;12.43;;;3.40;99.90;;;;;;5034379;28;20202;-75
2023/12/29 04:42:14;;;;;;;25.87;12.73;;;3.40;99.90;;;;;;5034629;28;20219;-75
2023/12/29 04:45:02;;;;;;;24.97;12.20;;;3.30;99.90;;;;;;5034301;28;20700;-75
2023/12/29 04:47:49;;;;;;;24.07;12.77;;;3.40;99.90;;;;;;5035203;28;20604;-75
2023/12/29 04:50:37;;;;;;;21.90;12.33;;;3.40;99.90;;;;;;5032766;28;20195;-75
2023/12/29 04:53:24;;;;;;;27.37;12.90;;;3.30;99.90;;;;;;5034082;28;20209;-75
2023/12/29 04:56:12;;;;;;;24.87;12.17;;;3.40;99.90;;;;;;5033926;28;20254;-75
2023/12/29 04:59:00;;;;;;;26.63;13.07;;;3.40;99.90;;;;;;5033655;28;20205;-75
2023/12/29 05:01:48;;;;;;;23.57;12.13;;;3.50;99.90;;;;;;5034037;28;20204;-75
2023/12/29 05:04:35;;;;;;;21.90;12.57;;;3.50;99.90;;;;;;5034538;28;20195;-75
2023/12/29 05:07:23;;;;;;;26.67;12.60;;;3.50;99.90;;;;;;4995478;28;20227;-75
2023/12/29 05:10:11;;;;;;;25.63;12.60;;;3.60;99.90;;;;;;4994643;28;20200;-76
2023/12/29 05:12:59;;;;;;;21.70;12.17;;;3.60;99.90;;;;;;4994472;28;20607;-75
2023/12/29 05:15:46;;;;;;;22.57;11.53;;;3.70;99.90;;;;;;4995421;28;20204;-76
2023/12/29 05:18:33;;;;;;;21.83;11.57;;;3.70;99.90;;;;;;4994765;28;20204;-75
2023/12/29 05:21:21;;;;;;;22.23;11.70;;;3.80;99.90;;;;;;4994860;28;20203;-75
2023/12/29 05:24:09;;;;;;;21.13;11.20;;;3.80;99.90;;;;;;4994157;28;20201;-75
2023/12/29 05:26:56;;;;;;;20.90;11.10;;;3.90;99.90;;;;;;4994423;28;20276;-75
2023/12/29 05:29:43;;;;;;;21.10;11.47;;;4.00;99.90;;;;;;4994586;28;20593;-75
2023/12/29 05:32:31;;;;;;;19.33;10.77;;;4.10;99.90;;;;;;4994372;28;20216;-76
2023/12/29 05:35:18;;;;;;;18.00;10.47;;;4.10;99.90;;;;;;4993946;28;20737;-76
2023/12/29 05:38:05;;;;;;;20.07;10.83;;;4.20;99.90;;;;;;4994484;28;20193;-76
2023/12/29 05:40:53;;;;;;;19.67;10.70;;;4.20;99.90;;;;;;4994886;28;20216;-76
2023/12/29 05:43:41;;;;;;;19.83;10.60;;;4.20;99.90;;;;;;4993304;28;20679;-75
2023/12/29 05:46:28;;;;;;;20.93;10.37;;;4.30;99.90;;;;;;4994147;28;20236;-75
2023/12/29 05:49:16;;;;;;;19.67;10.93;;;4.30;99.90;;;;;;4994828;28;20557;-76
2023/12/29 05:52:05;;;;;;;22.73;10.90;;;4.30;99.90;;;;;;4992779;28;20204;-75
2023/12/29 05:54:53;;;;;;;21.57;11.30;;;4.40;99.90;;;;;;4994707;28;20287;-75
2023/12/29 05:57:40;;;;;;;22.20;11.33;;;4.40;99.90;;;;;;4992093;28;20213;-75
2023/12/29 06:00:27;;;;;;;20.13;11.13;;;4.40;99.90;;;;;;4993955;28;20203;-75
2023/12/29 06:03:15;;;;;;;19.97;10.93;;;4.40;99.90;;;;;;4994243;28;20205;-75
2023/12/29 06:06:02;;;;;;;18.60;10.33;;;4.40;99.90;;;;;;5015983;28;20224;-75
2023/12/29 06:08:50;;;;;;;20.73;10.57;;;4.40;99.90;;;;;;5033158;28;20198;-75
2023/12/29 06:11:37;;;;;;;21.40;10.93;;;4.40;99.90;;;;;;5032434;28;20243;-76
2023/12/29 06:14:25;;;;;;;19.60;10.50;;;4.50;99.90;;;;;;5032749;28;20202;-75
2023/12/29 06:17:12;;;;;;;21.73;10.60;;;4.50;99.90;;;;;;5031989;28;20197;-75
2023/12/29 06:20:00;;;;;;;19.77;10.90;;;4.50;99.90;;;;;;5030540;28;20253;-76
2023/12/29 06:22:47;;;;;;;22.93;10.67;;;4.50;99.90;;;;;;5031337;28;20239;-76
2023/12/29 06:25:35;;;;;;;20.03;10.33;;;4.50;99.90;;;;;;5032218;28;20604;-76
2023/12/29 06:28:23;;;;;;;23.00;11.20;;;4.50;99.90;;;;;;5032488;28;20286;-76
2023/12/29 06:31:10;;;;;;;22.17;11.20;;;4.60;99.90;;;;;;5032231;28;20621;-76
2023/12/29 06:34:00;;;;;;;17.80;9.90;;;4.60;99.90;;;;;;5032133;28;20195;-76
2023/12/29 06:36:47;;;;;;;18.80;10.90;;;4.60;99.90;;;;;;5032258;28;20226;-76
2023/12/29 06:39:35;;;;;;;17.43;10.13;;;4.50;99.90;;;;;;5031686;28;20203;-76
2023/12/29 06:42:22;;;;;;;20.80;10.00;;;4.60;99.90;;;;;;5032693;28;20575;-77
2023/12/29 06:45:10;;;;;;;17.53;9.80;;;4.60;99.90;;;;;;5030976;28;20191;-77
2023/12/29 06:47:57;;;;;;;19.17;10.00;;;4.70;99.90;;;;;;5032510;28;20273;-77
2023/12/29 06:50:46;;;;;;;19.13;10.40;;;4.70;99.90;;;;;;5031554;28;20330;-77
2023/12/29 06:53:33;;;;;;;19.07;10.43;;;4.70;99.90;;;;;;5031822;28;20201;-76
2023/12/29 06:56:21;;;;;;;18.90;10.17;;;4.60;99.90;;;;;;5032198;28;20214;-77
2023/12/29 06:59:08;;;;;;;20.50;11.13;;;4.60;99.90;;;;;;5031450;28;20278;-77
2023/12/29 07:01:55;;;;;;;22.13;10.67;;;4.60;99.90;;;;;;5031695;28;20206;-77
2023/12/29 07:04:43;;;;;;;20.63;11.03;;;4.70;99.90;;;;;;5031772;28;20256;-77
2023/12/29 07:07:30;;;;;;;24.50;11.60;;;4.60;99.90;;;;;;5031647;28;20308;-76
2023/12/29 07:10:18;;;;;;;21.90;11.33;;;4.60;99.90;;;;;;5032269;28;20279;-76
2023/12/29 07:13:05;;;;;;;20.20;11.40;;;4.60;99.90;;;;;;5031627;28;20206;-76
2023/12/29 07:15:53;;;;;;;22.10;10.83;;;4.50;99.90;;;;;;5032230;28;20200;-76
2023/12/29 07:18:41;;;;;;;21.70;11.13;;;4.50;99.90;;;;;;5032771;28;20219;-76
2023/12/29 07:21:28;;;;;;;25.87;11.97;;;4.50;99.90;;;;;;5032045;28;20191;-76
2023/12/29 07:24:16;;;;;;;23.00;11.40;;;4.50;99.90;;;;;;5031126;28;20254;-79
2023/12/29 07:27:04;;;;;;;20.90;11.70;;;4.50;99.90;;;;;;5031500;28;20650;-77
2023/12/29 07:29:51;;;;;;;21.63;11.00;;;4.50;99.90;;;;;;5031998;28;20194;-77
2023/12/29 07:32:39;;;;;;;25.10;11.87;;;4.50;99.90;;;;;;5031703;28;20191;-77
2023/12/29 07:35:26;;;;;;;25.67;11.87;;;4.60;99.90;;;;;;5030583;28;20767;-76
2023/12/29 07:38:14;;;;;;;23.83;12.13;;;4.60;99.90;;;;;;5031508;28;20221;-78
2023/12/29 07:41:01;;;;;;;20.50;11.23;;;4.70;99.90;;;;;;5031837;28;20296;-78
2023/12/29 07:43:49;;;;;;;21.23;10.83;;;4.70;99.90;;;;;;5032033;28;20215;-76
2023/12/29 07:46:37;;;;;;;20.17;11.67;;;4.80;99.90;;;;;;5030261;28;20726;-77
2023/12/29 07:49:26;;;;;;;21.53;11.43;;;4.80;99.90;;;;;;5031726;28;20192;-78
2023/12/29 07:52:14;;;;;;;21.03;11.07;;;4.90;99.90;;;;;;5031890;28;20203;-75
2023/12/29 07:55:01;;;;;;;19.67;10.77;;;4.90;99.90;;;;;;5031829;28;20188;-76
2023/12/29 07:57:48;;;;;;;20.90;10.87;;;5.00;99.90;;;;;;5034482;28;20224;-75
2023/12/29 08:00:37;;;;;;;18.50;10.90;;;5.00;99.90;;;;;;5036797;28;20274;-75
2023/12/29 08:03:24;;;;;;;18.23;9.77;;;5.10;99.90;;;;;;5035730;28;20207;-75
2023/12/29 08:06:12;;;;;;;21.13;10.87;;;5.10;99.90;;;;;;5035908;28;20234;-76
2023/12/29 08:09:00;;;;;;;20.83;10.70;;;5.10;99.90;;;;;;5036442;28;20216;-77
2023/12/29 08:11:48;;;;;;;18.67;10.43;;;5.10;99.90;;;;;;5034334;28;20214;-77
2023/12/29 08:14:35;;;;;;;20.40;10.80;;;5.20;99.90;;;;;;5034314;28;20195;-78
2023/12/29 08:17:22;;;;;;;18.17;9.77;;;5.20;99.90;;;;;;5034236;28;20294;-77
2023/12/29 08:20:10;;;;;;;17.13;9.73;;;5.20;99.90;;;;;;5034626;28;20245;-78
2023/12/29 08:22:58;;;;;;;17.03;9.33;;;5.20;99.90;;;;;;5036340;28;20745;-77
2023/12/29 08:25:46;;;;;;;19.30;10.13;;;5.30;99.90;;;;;;5035640;28;20720;-77
2023/12/29 08:28:33;;;;;;;17.50;9.30;;;5.30;99.90;;;;;;5034475;28;20214;-77
2023/12/29 08:31:22;;;;;;;16.67;8.97;;;5.40;99.90;;;;;;5035191;28;20195;-78
2023/12/29 08:34:10;;;;;;;15.53;8.40;;;5.40;99.90;;;;;;5035429;28;20567;-79
2023/12/29 08:36:58;;;;;;;17.60;8.97;;;5.50;99.90;;;;;;5033932;28;20729;-78
2023/12/29 08:39:48;;;;;;;17.97;9.33;;;5.50;99.90;;;;;;5032169;28;20191;-77
2023/12/29 08:42:36;;;;;;;17.57;9.50;;;5.50;99.90;;;;;;5035371;28;20218;-77
2023/12/29 08:45:23;;;;;;;15.87;9.30;;;5.50;99.90;;;;;;5032628;28;20188;-76
2023/12/29 08:48:11;;;;;;;18.83;8.80;;;5.60;99.90;;;;;;5035899;28;20215;-77
2023/12/29 08:50:58;;;;;;;15.77;8.93;;;5.60;99.90;;;;;;5034382;28;20202;-75
2023/12/29 08:53:46;;;;;;;18.33;8.80;;;5.70;99.90;;;;;;5034304;28;20280;-75
2023/12/29 08:56:33;;;;;;;15.23;8.50;;;5.70;99.90;;;;;;5034437;28;20211;-76
2023/12/29 08:59:21;;;;;;;16.57;9.27;;;5.70;99.90;;;;;;5034536;28;20199;-75
2023/12/29 09:02:09;;;;;;;15.13;8.60;;;5.80;99.90;;;;;;5033863;28;20202;-78
2023/12/29 09:04:56;;;;;;;14.37;8.37;;;5.80;99.90;;;;;;5033669;28;20264;-78
2023/12/29 09:07:44;;;;;;;14.67;7.97;;;5.90;99.90;;;;;;5033251;28;20219;-78
2023/12/29 09:10:31;;;;;;;15.70;7.93;;;6.00;99.90;;;;;;5033563;28;20200;-78
2023/12/29 09:13:22;;;;;;;15.63;8.20;;;6.00;99.90;;;;;;5034040;28;20196;-78
2023/12/29 09:16:10;;;;;;;13.33;7.87;;;6.10;99.90;;;;;;5033085;28;20287;-79
2023/12/29 09:18:57;;;;;;;14.63;7.80;;;6.10;99.90;;;;;;5035223;28;20325;-78
2023/12/29 09:21:45;;;;;;;17.60;7.93;;;6.20;99.90;;;;;;5034204;28;20670;-75
2023/12/29 09:24:32;;;;;;;15.87;8.17;;;6.20;99.90;;;;;;5034544;28;20193;-75
2023/12/29 09:27:20;;;;;;;14.20;7.90;;;6.30;99.90;;;;;;5032961;28;20697;-75
2023/12/29 09:30:08;;;;;;;13.00;7.60;;;6.30;99.90;;;;;;5033770;28;20189;-75
2023/12/29 09:32:55;;;;;;;14.17;7.70;;;6.40;99.90;;;;;;5033808;28;20444;-75
2023/12/29 09:35:42;;;;;;;11.60;7.60;;;6.40;99.90;;;;;;5033198;28;20671;-76
2023/12/29 09:38:30;;;;;;;15.13;7.97;;;6.50;99.90;;;;;;5034008;28;20535;-75
2023/12/29 09:41:19;;;;;;;14.60;7.30;;;6.50;99.90;;;;;;5034283;28;20222;-76
2023/12/29 09:44:14;;;;;;;18.80;7.90;;;6.50;99.90;;;;;;5033637;28;20416;-76
2023/12/29 09:47:03;;;;;;;13.60;7.70;;;6.60;99.90;;;;;;5034281;28;20192;-76
2023/12/29 09:49:53;;;;;;;13.57;7.27;;;6.60;99.90;;;;;;5033405;28;20187;-77
2023/12/29 09:52:41;;;;;;;13.50;7.10;;;6.70;99.90;;;;;;5019659;28;20216;-76
2023/12/29 09:55:29;;;;;;;15.20;7.50;;;6.90;99.90;;;;;;5033018;28;20246;-76
2023/12/29 09:58:19;;;;;;;12.10;7.00;;;7.00;99.90;;;;;;5019300;28;20195;-76
2023/12/29 10:01:06;;;;;;;12.40;7.17;;;7.20;99.90;;;;;;5032588;28;20205;-77
2023/12/29 10:03:53;;;;;;;12.03;6.77;;;7.30;99.90;;;;;;5033211;28;20205;-75
2023/12/29 10:06:46;;;;;;;10.23;6.57;;;7.40;99.90;;;;;;5031789;28;20231;-76
2023/12/29 10:09:39;;;;;;;13.07;6.70;;;7.50;99.90;;;;;;5033265;28;20230;-76
2023/12/29 10:12:28;;;;;;;13.67;6.37;;;7.60;99.90;;;;;;5032955;28;20225;-76
2023/12/29 10:15:28;;;;;;;10.50;6.10;;;7.70;99.90;;;;;;5034179;28;20196;-77
2023/12/29 10:18:37;;;;;;;12.10;6.00;;;7.70;99.90;;;;;;5032548;28;20194;-76
2023/12/29 10:21:31;;;;;;;10.03;5.77;;;7.90;99.90;;;;;;5033187;28;20195;-75
2023/12/29 10:24:22;;;;;;;8.20;4.60;;;8.10;99.90;;;;;;5033799;28;20651;-77
2023/12/29 10:27:09;;;;;;;7.67;4.33;;;8.20;99.90;;;;;;5033786;28;20689;-76
2023/12/29 10:29:57;;;;;;;8.73;4.40;;;8.40;99.90;;;;;;5032695;28;20205;-75
2023/12/29 10:32:50;;;;;;;9.00;3.83;;;8.50;99.90;;;;;;5032128;28;20574;-75
2023/12/29 10:35:39;;;;;;;5.57;3.53;;;8.70;99.90;;;;;;5032154;28;20737;-76
2023/12/29 10:38:26;;;;;;;5.57;3.37;;;8.80;99.90;;;;;;5033178;28;20205;-76
2023/12/29 10:41:14;;;;;;;5.43;3.53;;;9.00;99.90;;;;;;5032490;28;20272;-76
2023/12/29 10:44:07;;;;;;;7.10;3.60;;;9.10;99.90;;;;;;5032424;28;20578;-75
2023/12/29 10:46:55;;;;;;;5.30;3.50;;;9.10;99.90;;;;;;5032451;28;20658;-76
2023/12/29 10:49:42;;;;;;;8.23;3.73;;;9.20;99.90;;;;;;5031885;28;20338;-76
2023/12/29 10:52:32;;;;;;;6.00;3.50;;;9.20;99.90;;;;;;5034223;28;20208;-75
2023/12/29 10:55:23;;;;;;;7.00;3.50;;;9.30;99.90;;;;;;5032652;28;20617;-75
2023/12/29 10:58:11;;;;;;;6.73;3.77;;;9.30;99.90;;;;;;5032306;28;20194;-73
2023/12/29 11:01:01;;;;;;;6.37;3.67;;;9.30;99.90;;;;;;5032860;28;20192;-76
2023/12/29 11:04:09;;;;;;;6.60;3.60;;;9.40;99.90;;;;;;5032418;28;20569;-76
2023/12/29 11:06:56;;;;;;;5.60;3.67;;;9.50;99.90;;;;;;5031153;28;20695;-76
2023/12/29 11:09:44;;;;;;;8.27;4.13;;;9.60;99.90;;;;;;5031961;28;20227;-76
2023/12/29 11:12:33;;;;;;;6.80;4.00;;;9.50;99.90;;;;;;5032165;28;20682;-77
2023/12/29 11:15:24;;;;;;;7.20;3.43;;;9.60;99.90;;;;;;5032235;28;20204;-75
2023/12/29 11:18:20;;;;;;;6.63;3.53;;;9.60;99.90;;;;;;5033443;28;20191;-76
2023/12/29 11:21:09;;;;;;;6.07;3.40;;;9.60;99.90;;;;;;5031620;28;20278;-76
2023/12/29 11:23:58;;;;;;;7.57;3.50;;;9.70;99.90;;;;;;5032779;28;20207;-75
2023/12/29 11:26:45;;;;;;;5.97;3.30;;;9.70;99.90;;;;;;5030976;28;20284;-75
2023/12/29 11:29:34;;;;;;;7.60;3.50;;;9.70;99.90;;;;;;5032565;28;20223;-76
2023/12/29 11:32:30;;;;;;;6.40;3.80;;;9.70;99.90;;;;;;5035904;28;20260;-76
2023/12/29 11:35:46;;;;;;;5.23;3.27;;;9.60;99.90;;;;;;5035724;28;20194;-75
2023/12/29 11:38:52;;;;;;;5.53;3.30;;;9.70;99.90;;;;;;5014405;28;20199;-76
2023/12/29 11:41:49;;;;;;;7.47;3.33;;;9.70;99.90;;;;;;5014265;28;20325;-76
2023/12/29 11:44:36;;;;;;;7.43;3.70;;;9.80;99.90;;;;;;5014687;28;20206;-76
2023/12/29 11:47:38;;;;;;;5.53;3.20;;;9.80;99.90;;;;;;5013791;28;20208;-75
2023/12/29 11:50:40;;;;;;;6.57;3.47;;;9.70;99.90;;;;;;5013635;28;20195;-76
2023/12/29 11:53:32;;;;;;;5.77;3.37;;;9.80;99.90;;;;;;5013036;28;20665;-76
2023/12/29 11:56:20;;;;;;;5.43;3.10;;;9.80;99.90;;;;;;5013436;28;20222;-76
2023/12/29 11:59:13;;;;;;;6.93;3.60;;;9.70;99.90;;;;;;5013480;28;20191;-76
2023/12/29 12:02:01;;;;;;;5.57;3.10;;;9.70;99.90;;;;;;5015021;28;20236;-75
2023/12/29 12:04:50;;;;;;;8.40;3.50;;;9.70;99.90;;;;;;5013230;28;20205;-75
2023/12/29 12:07:40;;;;;;;5.50;3.20;;;9.70;99.90;;;;;;5013274;28;20196;-75
2023/12/29 12:10:30;;;;;;;9.27;3.80;;;9.70;99.90;;;;;;5015049;28;20560;-75
2023/12/29 12:13:45;;;;;;;8.20;3.40;;;9.70;99.90;;;;;;5013792;28;20206;-75
2023/12/29 12:16:45;;;;;;;7.37;3.73;;;9.80;99.90;;;;;;5036611;28;20227;-75
2023/12/29 12:19:35;;;;;;;6.03;3.57;;;9.70;99.90;;;;;;5034608;28;20248;-75
2023/12/29 12:22:24;;;;;;;8.20;3.63;;;9.70;99.90;;;;;;5034790;28;20195;-75
2023/12/29 12:25:12;;;;;;;6.33;3.63;;;9.70;99.90;;;;;;5035114;28;20574;-75
2023/12/29 12:28:04;;;;;;;7.63;3.67;;;9.70;99.90;;;;;;5034987;28;20295;-75
2023/12/29 12:30:53;;;;;;;5.70;3.73;;;9.70;99.90;;;;;;5034779;28;20662;-75
2023/12/29 12:33:41;;;;;;;6.57;3.63;;;9.70;99.90;;;;;;5033294;28;20222;-76
2023/12/29 12:36:29;;;;;;;8.20;3.80;;;9.70;99.90;;;;;;5034531;28;20198;-75
2023/12/29 12:39:16;;;;;;;7.00;3.63;;;9.60;99.90;;;;;;5035264;28;20281;-76
2023/12/29 12:42:04;;;;;;;5.10;3.50;;;9.60;99.90;;;;;;5032729;28;20211;-76
2023/12/29 12:45:10;;;;;;;7.20;3.87;;;9.60;99.90;;;;;;5034085;28;20204;-77
2023/12/29 12:48:14;;;;;;;5.87;3.70;;;9.70;99.90;;;;;;5034351;28;20273;-77
2023/12/29 12:51:03;;;;;;;6.83;3.70;;;9.70;99.90;;;;;;5035800;28;20189;-77
2023/12/29 12:53:51;;;;;;;6.77;3.83;;;9.80;99.90;;;;;;5033941;28;20336;-76
2023/12/29 12:56:40;;;;;;;7.20;3.80;;;9.70;99.90;;;;;;5035516;28;20222;-76
2023/12/29 12:59:28;;;;;;;6.37;3.97;;;9.80;99.90;;;;;;5035050;28;20277;-76
2023/12/29 13:02:17;;;;;;;5.90;3.60;;;9.80;99.90;;;;;;5035066;28;20256;-78
2023/12/29 13:05:07;;;;;;;8.13;3.67;;;9.80;99.90;;;;;;5034212;28;20616;-77
2023/12/29 13:07:58;;;;;;;6.03;3.53;;;9.80;99.90;;;;;;5034253;28;20203;-77
2023/12/29 13:10:46;;;;;;;7.40;3.70;;;9.70;99.90;;;;;;5034029;28;20201;-77
2023/12/29 13:13:38;;;;;;;8.30;4.10;;;9.70;99.90;;;;;;5034451;28;20194;-75
2023/12/29 13:16:35;;;;;;;7.33;3.70;;;9.70;99.90;;;;;;5034173;28;20202;-76
2023/12/29 13:19:24;;;;;;;6.00;3.60;;;9.80;99.90;;;;;;5035301;28;20294;-76
2023/12/29 13:22:16;;;;;;;10.67;3.73;;;9.80;99.90;;;;;;5034559;28;20205;-75
2023/12/29 13:25:07;;;;;;;7.67;3.80;;;9.80;99.90;;;;;;5032916;28;20688;-76
2023/12/29 13:27:55;;;;;;;7.13;3.70;;;9.80;99.90;;;;;;5034190;28;20211;-76
2023/12/29 13:30:43;;;;;;;7.20;3.70;;;9.80;99.90;;;;;;5033933;28;20210;-76
2023/12/29 13:33:39;;;;;;;6.80;3.93;;;9.80;99.90;;;;;;5033813;28;20196;-76
2023/12/29 13:36:38;;;;;;;6.80;3.53;;;9.70;99.90;;;;;;5033655;28;20678;-78
2023/12/29 13:39:35;;;;;;;7.03;3.93;;;9.70;99.90;;;;;;5032748;28;20199;-76
2023/12/29 13:42:25;;;;;;;5.87;3.63;;;9.70;99.90;;;;;;5032695;28;20229;-76
2023/12/29 13:45:15;;;;;;;6.10;3.80;;;9.80;99.90;;;;;;5033546;28;20245;-76
2023/12/29 13:48:03;;;;;;;11.47;3.77;;;9.80;99.90;;;;;;5034662;28;20282;-77
2023/12/29 13:50:51;;;;;;;8.20;4.03;;;9.80;99.90;;;;;;5032912;28;20203;-76
2023/12/29 13:53:39;;;;;;;7.07;3.43;;;9.80;99.90;;;;;;5033922;28;20749;-78
2023/12/29 13:56:26;;;;;;;6.47;3.50;;;9.70;99.90;;;;;;5034170;28;20276;-76
2023/12/29 13:59:14;;;;;;;5.13;3.53;;;9.70;99.90;;;;;;5033836;28;20548;-76
2023/12/29 14:02:31;;;;;;;7.40;3.70;;;9.80;99.90;;;;;;5032575;28;20335;-77
2023/12/29 14:05:24;;;;;;;6.27;3.60;;;9.70;99.90;;;;;;5033615;28;20362;-76
2023/12/29 14:08:20;;;;;;;7.63;3.80;;;9.70;99.90;;;;;;5032606;28;20198;-77
2023/12/29 14:11:10;;;;;;;6.50;3.57;;;9.70;99.90;;;;;;5032896;28;20369;-77
2023/12/29 14:13:58;;;;;;;7.23;3.30;;;9.80;99.90;;;;;;5033111;28;20199;-77
2023/12/29 14:16:46;;;;;;;6.03;3.80;;;9.70;99.90;;;;;;5033494;28;20210;-77
2023/12/29 14:19:37;;;;;;;6.57;3.70;;;9.60;99.90;;;;;;5031486;28;20602;-76
2023/12/29 14:22:26;;;;;;;10.97;3.70;;;9.60;99.90;;;;;;5033319;28;20289;-76
2023/12/29 14:25:13;;;;;;;7.80;4.00;;;9.60;99.90;;;;;;5032819;28;20206;-76
2023/12/29 14:28:02;;;;;;;7.37;3.57;;;9.60;99.90;;;;;;5032865;28;20686;-76
2023/12/29 14:31:01;;;;;;;7.60;3.70;;;9.50;99.90;;;;;;5031228;28;20197;-77
2023/12/29 14:33:49;;;;;;;9.20;3.70;;;9.60;99.90;;;;;;5032155;28;20297;-76
2023/12/29 14:36:42;;;;;;;9.97;4.07;;;9.50;99.90;;;;;;5032079;28;20199;-77
2023/12/29 14:39:30;;;;;;;7.40;3.90;;;9.50;99.90;;;;;;5032712;28;20284;-77